Marianne — VRFM5 — position and weather

sailwx.info

Track history (hours):
 
Tides and Currents Weather Stations Pressure Air Temp Water Temp Dewpoint Dewpoint Depression Visibility Wind Speed Wind Dir Waves Ship Positions

Marianne

Last reported at 2017-Aug-22 05:23 UTC. Time now 2017-Aug-22 05:30 UTC.
Position N 53°27' W 003°24'.

Length 97 m; draft 5.5 m.

Type: Ship (hazmat cat B). MMSI: 477560836.

Date/timePositionNaut miles runAvg speedWind from/ knotsBaromVisibWave heightAir tempDewpointWater temp
2017-Aug-22 05:23N 53°27' W 003°24'0 0.0
2017-Aug-22 04:56N 53°27' W 003°24'0 0.0
2017-Aug-22 04:29N 53°27' W 003°24'0 0.0
2017-Aug-22 03:56N 53°27' W 003°24'0 0.0
2017-Aug-22 03:26N 53°27' W 003°24'0 0.0
2017-Aug-22 02:50N 53°27' W 003°24'0 0.0
2017-Aug-22 02:29N 53°27' W 003°24'0 0.0
2017-Aug-22 01:59N 53°27' W 003°24'0 0.0
2017-Aug-22 01:26N 53°27' W 003°24'0 0.0
2017-Aug-22 00:56N 53°27' W 003°24'0 0.0
2017-Aug-22 00:29N 53°27' W 003°24'0 0.0
2017-Aug-21 23:59N 53°27' W 003°24'0 0.0
2017-Aug-21 23:29N 53°27' W 003°24'0 0.2
2017-Aug-21 22:56N 53°27' W 003°24'0 0.0
2017-Aug-21 22:29N 53°27' W 003°24'0 0.0
2017-Aug-21 21:56N 53°27' W 003°24'0 0.0
2017-Aug-21 21:29N 53°27' W 003°24'0 0.0
2017-Aug-21 20:50N 53°27' W 003°24'0 0.0
2017-Aug-21 20:26N 53°27' W 003°24'0 0.0
2017-Aug-21 19:56N 53°27' W 003°24'0 0.0
2017-Aug-21 19:29N 53°27' W 003°24'0 0.0
2017-Aug-21 18:59N 53°27' W 003°24'0 0.0
2017-Aug-21 18:14N 53°27' W 003°24'0 0.0
2017-Aug-21 17:56N 53°27' W 003°24'0 0.1
2017-Aug-21 17:20N 53°27' W 003°24'0 0.0
2017-Aug-21 16:59N 53°27' W 003°24'0 0.0
2017-Aug-21 16:26N 53°27' W 003°24'0 0.0
2017-Aug-21 15:59N 53°27' W 003°24'0 0.0
2017-Aug-21 15:29N 53°27' W 003°24'0 0.0
2017-Aug-21 14:56N 53°27' W 003°24'0 0.0
2017-Aug-21 14:26N 53°27' W 003°24'0 0.0
2017-Aug-21 13:59N 53°27' W 003°24'0 0.0
2017-Aug-21 13:29N 53°27' W 003°24'0 0.0
2017-Aug-21 12:59N 53°27' W 003°24'0 0.0
2017-Aug-21 12:29N 53°27' W 003°24'0 0.0
2017-Aug-21 11:56N 53°27' W 003°24'0 0.0
2017-Aug-21 11:29N 53°27' W 003°24'0 0.0
2017-Aug-21 10:59N 53°27' W 003°24'0 0.0
2017-Aug-21 10:29N 53°27' W 003°24'0 0.1
2017-Aug-21 09:59N 53°27' W 003°24'0 0.1
2017-Aug-21 09:23N 53°27' W 003°24'0 0.0
2017-Aug-21 08:56N 53°27' W 003°24'0 0.0
2017-Aug-21 08:29N 53°27' W 003°24'0 0.0
2017-Aug-21 07:59N 53°27' W 003°24'0 0.1
2017-Aug-21 07:29N 53°27' W 003°24'1 2.8
2017-Aug-21 07:00N 53°28' W 003°26'4 8.9
2017-Aug-21 06:30N 53°31' W 003°32'611.4
2017-Aug-21 06:00N 53°31' W 003°41'510.7
2017-Aug-21 05:30N 53°33' W 003°50'5611.3
2017-Aug-21 00:32N 54°10' W 005°01'112.3
2017-Aug-21 00:28N 54°11' W 005°01'612.4
2017-Aug-21 00:00N 54°17' W 005°03'612.3
2017-Aug-20 23:30N 54°22' W 005°06'612.1
2017-Aug-20 23:00N 54°28' W 005°09'611.9
2017-Aug-20 22:30N 54°34' W 005°13'612.8
2017-Aug-20 22:00N 54°39' W 005°18'713.8
2017-Aug-20 21:30N 54°45' W 005°25'714.3
2017-Aug-20 21:00N 54°51' W 005°31'1214.4
2017-Aug-20 20:08N 55°01' W 005°43'214.4
2017-Aug-20 20:00N 55°03' W 005°46'1015.4
2017-Aug-20 19:22N 55°11' W 005°55'616.5
2017-Aug-20 19:00N 55°16' W 006°01'815.3
2017-Aug-20 18:30N 55°21' W 006°11'714.6
2017-Aug-20 18:00N 55°23' W 006°23'713.8
2017-Aug-20 17:31N 55°25' W 006°35'612.5
2017-Aug-20 17:00N 55°30' W 006°41'713.1
2017-Aug-20 16:30N 55°36' W 006°46'612.2
2017-Aug-20 16:00N 55°41' W 006°51'611.3
2017-Aug-20 15:30N 55°47' W 006°55'611.5
2017-Aug-20 14:56N 55°53' W 006°59'19310.9
2017-Aug-19 21:09N 58°43' W 004°10'211.2
2017-Aug-19 21:00N 58°43' W 004°07'611.1
2017-Aug-19 20:30N 58°43' W 003°56'510.7
2017-Aug-19 20:00N 58°43' W 003°46'5 9.9
2017-Aug-19 19:30N 58°43' W 003°36'5 9.3
2017-Aug-19 19:01N 58°43' W 003°27'4 8.9
2017-Aug-19 18:30N 58°43' W 003°19'4 8.2
2017-Aug-19 18:00N 58°43' W 003°11'3 6.5
2017-Aug-19 17:30N 58°43' W 003°05'4 7.1
2017-Aug-19 17:00N 58°43' W 002°58'5 9.6
2017-Aug-19 16:31N 58°43' W 002°49'23510.8
2017-Aug-18 18:43N 59°03' E 004°45'211.5
2017-Aug-18 18:31N 59°03' E 004°49'611.7
2017-Aug-18 18:00N 59°03' E 005°01'611.5
2017-Aug-18 17:30N 59°04' E 005°12'511.1
2017-Aug-18 17:01N 59°06' E 005°22'510.2
2017-Aug-18 16:30N 59°09' E 005°29'510.4
2017-Aug-18 16:01N 59°14' E 005°31'2 3.8
2017-Aug-18 15:29N 59°16' E 005°30'0 0.0
2017-Aug-18 14:56N 59°16' E 005°30'0 0.0
2017-Aug-18 14:29N 59°16' E 005°30'0 0.0
2017-Aug-18 13:29N 59°16' E 005°30'0 0.0
2017-Aug-18 12:56N 59°16' E 005°30'0 0.0
2017-Aug-18 12:29N 59°16' E 005°30'0 0.0
2017-Aug-18 11:59N 59°16' E 005°30'0 0.0
2017-Aug-18 11:29N 59°16' E 005°30'0 0.0
2017-Aug-18 10:59N 59°16' E 005°30'0 0.0
2017-Aug-18 10:29N 59°16' E 005°30'0 0.0
2017-Aug-18 09:56N 59°16' E 005°30'0 0.0
2017-Aug-18 09:29N 59°16' E 005°30'0 0.0
2017-Aug-18 08:59N 59°16' E 005°30'0 0.0
2017-Aug-18 08:29N 59°16' E 005°30'0 0.0
2017-Aug-18 07:59N 59°16' E 005°30'0 0.0
2017-Aug-18 07:26N 59°16' E 005°30'0 0.0
2017-Aug-18 06:59N 59°16' E 005°30'0 0.0
2017-Aug-18 06:26N 59°16' E 005°30'0 0.0
2017-Aug-18 05:53N 59°16' E 005°30'0 0.0
2017-Aug-18 05:26N 59°16' E 005°30'0 0.0
2017-Aug-18 04:59N 59°16' E 005°30'0 0.0
2017-Aug-18 04:29N 59°16' E 005°30'0 0.0
2017-Aug-18 03:59N 59°16' E 005°30'0 0.0
2017-Aug-18 03:29N 59°16' E 005°30'0 0.0
2017-Aug-18 02:59N 59°16' E 005°30'0 0.0
2017-Aug-18 02:29N 59°16' E 005°30'0 0.0
2017-Aug-18 01:59N 59°16' E 005°30'0 0.0
2017-Aug-18 01:29N 59°16' E 005°30'0 0.0
2017-Aug-18 00:59N 59°16' E 005°30'0 0.0
2017-Aug-18 00:23N 59°16' E 005°30'0 0.0
2017-Aug-17 23:59N 59°16' E 005°30'0 0.0
2017-Aug-17 23:29N 59°16' E 005°30'0 0.0
2017-Aug-17 22:59N 59°16' E 005°30'0 0.0
2017-Aug-17 22:29N 59°16' E 005°30'0 0.0
2017-Aug-17 21:59N 59°16' E 005°30'0 0.0
2017-Aug-17 21:29N 59°16' E 005°30'0 0.0
2017-Aug-17 21:00N 59°16' E 005°30'2 3.3
2017-Aug-17 20:30N 59°15' E 005°31'1 1.5
2017-Aug-17 19:58N 59°14' E 005°31'0 0.0
2017-Aug-17 19:11N 59°14' E 005°30'0 0.1
2017-Aug-17 18:58N 59°14' E 005°31'0 0.1
2017-Aug-17 18:28N 59°14' E 005°30'0 0.0
2017-Aug-17 17:58N 59°14' E 005°30'0 0.1
2017-Aug-17 17:28N 59°14' E 005°31'0 0.0
2017-Aug-17 16:58N 59°14' E 005°31'0 0.0
2017-Aug-17 16:25N 59°14' E 005°31'0 0.0
2017-Aug-17 15:58N 59°14' E 005°31'0 0.0
2017-Aug-17 15:28N 59°14' E 005°31'0 0.0
2017-Aug-17 14:58N 59°14' E 005°31'0 0.0
2017-Aug-17 14:28N 59°14' E 005°31'0 0.0
2017-Aug-17 13:58N 59°14' E 005°31'0 0.0
2017-Aug-17 13:28N 59°14' E 005°31'0 0.0
2017-Aug-17 12:58N 59°14' E 005°31'0 0.0
2017-Aug-17 12:28N 59°14' E 005°30'0 0.0
2017-Aug-17 11:58N 59°14' E 005°31'0 0.0
2017-Aug-17 11:28N 59°14' E 005°30'0 0.0
2017-Aug-17 10:58N 59°14' E 005°31'0 0.0
2017-Aug-17 10:28N 59°14' E 005°31'0 0.0
2017-Aug-17 09:58N 59°14' E 005°31'0 0.0
2017-Aug-17 09:28N 59°14' E 005°31'0 0.0
2017-Aug-17 08:58N 59°14' E 005°31'0 0.0
2017-Aug-17 08:28N 59°14' E 005°31'0 0.0
2017-Aug-17 07:58N 59°14' E 005°31'0 0.0
2017-Aug-17 07:28N 59°14' E 005°31'0 0.0
2017-Aug-17 06:58N 59°14' E 005°31'0 0.0
2017-Aug-17 06:28N 59°14' E 005°30'0 0.0
2017-Aug-17 05:58N 59°14' E 005°30'0 0.0
2017-Aug-17 05:28N 59°14' E 005°30'0 0.0
2017-Aug-17 04:58N 59°14' E 005°31'0 0.0
2017-Aug-17 04:28N 59°14' E 005°31'0 0.0
2017-Aug-17 03:58N 59°14' E 005°31'0 0.0
2017-Aug-17 03:28N 59°14' E 005°30'0 0.0
2017-Aug-17 02:58N 59°14' E 005°31'0 0.0
2017-Aug-17 02:28N 59°14' E 005°31'0 0.0
2017-Aug-17 01:58N 59°14' E 005°31'0 0.0
2017-Aug-17 01:28N 59°14' E 005°31'0 0.0
2017-Aug-17 00:58N 59°14' E 005°31'0 0.0
2017-Aug-17 00:28N 59°14' E 005°31'0 0.0
2017-Aug-16 23:58N 59°14' E 005°31'0 0.0
2017-Aug-16 23:28N 59°14' E 005°31'0 0.0
2017-Aug-16 22:58N 59°14' E 005°31'0 0.0
2017-Aug-16 22:28N 59°14' E 005°31'0 0.0
2017-Aug-16 21:58N 59°14' E 005°31'0 0.0
2017-Aug-16 21:28N 59°14' E 005°31'0 0.0
2017-Aug-16 20:58N 59°14' E 005°31'0 0.0
2017-Aug-16 20:28N 59°14' E 005°31'0 0.0
2017-Aug-16 19:58N 59°14' E 005°31'0 0.0
2017-Aug-16 19:28N 59°14' E 005°31'0 0.0
2017-Aug-16 18:58N 59°14' E 005°31'0 0.0
2017-Aug-16 18:28N 59°14' E 005°31'0 0.0
2017-Aug-16 17:58N 59°14' E 005°31'0 0.0
2017-Aug-16 17:25N 59°14' E 005°31'0 0.0
2017-Aug-16 16:58N 59°14' E 005°31'0 0.0
2017-Aug-16 16:30N 59°14' E 005°31'0 0.0
2017-Aug-16 16:00N 59°14' E 005°31'0 0.0
2017-Aug-16 15:30N 59°14' E 005°31'0 0.1
2017-Aug-16 15:00N 59°14' E 005°31'2 4.8
2017-Aug-16 14:30N 59°11' E 005°32'511.1
2017-Aug-16 14:00N 59°07' E 005°27'510.1
2017-Aug-16 13:30N 59°04' E 005°19'510.5
2017-Aug-16 13:00N 58°59' E 005°14'612.8
2017-Aug-16 12:30N 58°53' E 005°12'714.6
2017-Aug-16 12:00N 58°46' E 005°10'714.3
2017-Aug-16 11:30N 58°39' E 005°08'713.9
2017-Aug-16 11:00N 58°32' E 005°05'29612.9
2017-Aug-15 11:58N 53°36' E 004°49'814.1
2017-Aug-15 11:26N 53°29' E 004°45'614.3
2017-Aug-15 10:59N 53°23' E 004°41'1015.1
2017-Aug-15 10:21N 53°14' E 004°34'615.6
2017-Aug-15 09:58N 53°09' E 004°30'715.2
2017-Aug-15 09:30N 53°03' E 004°24'714.8
2017-Aug-15 09:00N 52°56' E 004°18'714.8
2017-Aug-15 08:31N 52°50' E 004°12'714.4
2017-Aug-15 08:00N 52°44' E 004°06'714.6
2017-Aug-15 07:31N 52°39' E 003°57'714.8
2017-Aug-15 07:01N 52°34' E 003°49'714.8
2017-Aug-15 06:30N 52°28' E 003°40'714.7
2017-Aug-15 06:00N 52°23' E 003°31'714.5
2017-Aug-15 05:30N 52°18' E 003°23'714.2
2017-Aug-15 05:01N 52°13' E 003°15'713.8
2017-Aug-15 04:30N 52°08' E 003°08'713.5
2017-Aug-15 04:00N 52°02' E 003°01'613.0
2017-Aug-15 03:31N 51°57' E 002°54'612.8
2017-Aug-15 03:00N 51°53' E 002°47'612.5
2017-Aug-15 02:30N 51°48' E 002°40'612.2
2017-Aug-15 02:00N 51°44' E 002°33'612.1
2017-Aug-15 01:31N 51°39' E 002°27'611.9
2017-Aug-15 01:00N 51°34' E 002°21'611.7
2017-Aug-15 00:31N 51°30' E 002°15'611.9
2017-Aug-15 00:00N 51°26' E 002°08'612.0
2017-Aug-14 23:30N 51°20' E 002°06'612.3
2017-Aug-14 23:00N 51°14' E 002°05'612.0
2017-Aug-14 22:31N 51°11' E 001°57'612.0
2017-Aug-14 22:01N 51°08' E 001°48'5 9.6
2017-Aug-14 21:30N 51°03' E 001°47'714.4
2017-Aug-14 21:00N 51°03' E 001°59'714.1
2017-Aug-14 20:31N 51°03' E 002°10'713.4
2017-Aug-14 20:00N 51°04' E 002°21'1 1.5
2017-Aug-14 19:30N 51°03' E 002°20'2 3.3
2017-Aug-14 19:00N 51°03' E 002°18'2 2.1
2017-Aug-14 18:16N 51°02' E 002°16'0 0.0
2017-Aug-14 17:49N 51°02' E 002°16'0 0.0
2017-Aug-14 17:22N 51°02' E 002°16'0 0.0
2017-Aug-14 16:55N 51°02' E 002°16'0 0.0
2017-Aug-14 16:25N 51°02' E 002°16'0 0.0
2017-Aug-14 15:52N 51°02' E 002°16'0 0.0
2017-Aug-14 15:25N 51°02' E 002°16'0 0.0
2017-Aug-14 14:58N 51°02' E 002°16'0 0.0
2017-Aug-14 14:28N 51°02' E 002°16'0 0.0
2017-Aug-14 13:58N 51°02' E 002°16'0 0.0
2017-Aug-14 13:25N 51°02' E 002°16'0 0.0
2017-Aug-14 12:49N 51°02' E 002°16'0 0.0
2017-Aug-14 12:13N 51°02' E 002°16'0 0.0
2017-Aug-14 11:55N 51°02' E 002°16'0 0.0
2017-Aug-14 11:22N 51°02' E 002°16'0 0.0
2017-Aug-14 10:55N 51°02' E 002°16'0 0.0
2017-Aug-14 10:25N 51°02' E 002°16'0 0.0
2017-Aug-14 09:55N 51°02' E 002°16'0 0.0
2017-Aug-14 09:01N 51°02' E 002°16'0 0.0
2017-Aug-14 08:49N 51°02' E 002°16'0 0.0
2017-Aug-14 08:07N 51°02' E 002°16'0 0.0
2017-Aug-14 07:52N 51°02' E 002°16'0 0.0
2017-Aug-14 07:25N 51°02' E 002°16'0 0.0
2017-Aug-14 06:52N 51°02' E 002°16'0 0.0
2017-Aug-14 06:28N 51°02' E 002°16'0 0.0
2017-Aug-14 05:58N 51°02' E 002°16'0 0.0
2017-Aug-14 05:19N 51°02' E 002°16'0 0.0
2017-Aug-14 04:52N 51°02' E 002°16'0 0.0
2017-Aug-14 04:28N 51°02' E 002°16'0 0.0
2017-Aug-14 03:58N 51°02' E 002°16'0 0.0
2017-Aug-14 03:25N 51°02' E 002°16'0 0.0
2017-Aug-14 02:49N 51°02' E 002°16'0 0.0
2017-Aug-14 02:28N 51°02' E 002°16'0 0.0
2017-Aug-14 01:52N 51°02' E 002°16'0 0.0
2017-Aug-14 01:28N 51°02' E 002°16'0 0.0
2017-Aug-14 00:52N 51°02' E 002°16'0 0.0
2017-Aug-14 00:25N 51°02' E 002°16'0 0.0
2017-Aug-13 23:58N 51°02' E 002°16'0 0.0
2017-Aug-13 22:37N 51°02' E 002°16'0 0.0
2017-Aug-13 22:28N 51°02' E 002°16'0 0.0
2017-Aug-13 21:58N 51°02' E 002°16'0 0.0
2017-Aug-13 21:25N 51°02' E 002°16'0 0.0
2017-Aug-13 20:34N 51°02' E 002°16'0 0.0
2017-Aug-13 20:13N 51°02' E 002°16'0 0.0
2017-Aug-13 19:52N 51°02' E 002°16'0 0.0
2017-Aug-13 19:28N 51°02' E 002°16'0 0.0
2017-Aug-13 18:52N 51°02' E 002°16'0 0.0
2017-Aug-13 18:28N 51°02' E 002°16'0 0.0
2017-Aug-13 17:58N 51°02' E 002°16'0 0.0
2017-Aug-13 17:22N 51°02' E 002°16'0 0.0
2017-Aug-13 16:31N 51°02' E 002°16'0 0.0
2017-Aug-13 16:28N 51°02' E 002°16'0 0.0
2017-Aug-13 15:52N 51°02' E 002°16'0 0.0
2017-Aug-13 15:16N 51°02' E 002°16'0 0.0
2017-Aug-13 14:52N 51°02' E 002°16'0 0.0
2017-Aug-13 14:31N 51°02' E 002°16'2 3.1
2017-Aug-13 13:58N 51°03' E 002°18'2 3.4
2017-Aug-13 13:30N 51°03' E 002°21'1 2.0
2017-Aug-13 13:01N 51°04' E 002°21'2 4.4
2017-Aug-13 12:31N 51°04' E 002°18'4 8.5
2017-Aug-13 12:01N 51°03' E 002°11'510.7
2017-Aug-13 11:30N 51°03' E 002°03'510.4
2017-Aug-13 11:00N 51°02' E 001°54'5 9.2
2017-Aug-13 10:30N 51°03' E 001°47'4 7.5
2017-Aug-13 10:00N 51°05' E 001°43'2 4.4
2017-Aug-13 09:30N 51°07' E 001°40'2 4.9
2017-Aug-13 09:00N 51°09' E 001°41'3 5.7
2017-Aug-13 08:30N 51°12' E 001°44'3 5.3
2017-Aug-13 08:00N 51°14' E 001°46'3 5.2
2017-Aug-13 07:31N 51°16' E 001°48'3 5.3
2017-Aug-13 07:00N 51°18' E 001°50'5 9.6
2017-Aug-13 06:30N 51°23' E 001°53'611.8
2017-Aug-13 06:00N 51°28' E 001°58'611.7
2017-Aug-13 05:29N 51°32' E 002°05'611.7
2017-Aug-13 04:59N 51°37' E 002°11'811.8
2017-Aug-13 04:18N 51°43' E 002°20'1511.5
2017-Aug-13 03:02N 51°56' E 002°28'413.4
2017-Aug-13 02:45N 52°00' E 002°27'513.8
2017-Aug-13 02:21N 52°05' E 002°26'4714.8
2017-Aug-12 23:11N 52°50' E 002°04'614.7
2017-Aug-12 22:48N 52°54' E 001°57'415.3
2017-Aug-12 22:30N 52°57' E 001°51'815.5
2017-Aug-12 22:00N 53°00' E 001°40'815.1
2017-Aug-12 21:30N 53°05' E 001°30'714.9
2017-Aug-12 21:00N 53°10' E 001°21'713.9
2017-Aug-12 20:30N 53°15' E 001°14'5814.4
2017-Aug-12 16:29N 54°02' E 000°16'713.7
2017-Aug-12 16:00N 54°07' E 000°08'713.3
2017-Aug-12 15:30N 54°12' E 000°01'612.9
2017-Aug-12 15:00N 54°17' W 000°07'612.6
2017-Aug-12 14:30N 54°21' W 000°14'612.4
2017-Aug-12 14:00N 54°26' W 000°21'611.9
2017-Aug-12 13:30N 54°30' W 000°29'2011.9
2017-Aug-12 11:48N 54°40' W 000°59'  
Track history (hours):
 
Tides and Currents Weather Stations Pressure Air Temp Water Temp Dewpoint Dewpoint Depression Visibility Wind Speed Wind Dir Waves Ship Positions

Marianne

Last reported at 2017-Aug-22 05:23 UTC. Time now 2017-Aug-22 05:30 UTC.
Position N 53°27' W 003°24'.

Length 97 m; draft 5.5 m.

Type: Ship (hazmat cat B). MMSI: 477560836.

Date/timePositionNaut miles runAvg speedWind from/ knotsBaromVisibWave heightAir tempDewpointWater temp
2017-Aug-22 05:23N 53°27' W 003°24'0 0.0
2017-Aug-22 04:56N 53°27' W 003°24'0 0.0
2017-Aug-22 04:29N 53°27' W 003°24'0 0.0
2017-Aug-22 03:56N 53°27' W 003°24'0 0.0
2017-Aug-22 03:26N 53°27' W 003°24'0 0.0
2017-Aug-22 02:50N 53°27' W 003°24'0 0.0
2017-Aug-22 02:29N 53°27' W 003°24'0 0.0
2017-Aug-22 01:59N 53°27' W 003°24'0 0.0
2017-Aug-22 01:26N 53°27' W 003°24'0 0.0
2017-Aug-22 00:56N 53°27' W 003°24'0 0.0
2017-Aug-22 00:29N 53°27' W 003°24'0 0.0
2017-Aug-21 23:59N 53°27' W 003°24'0 0.0
2017-Aug-21 23:29N 53°27' W 003°24'0 0.2
2017-Aug-21 22:56N 53°27' W 003°24'0 0.0
2017-Aug-21 22:29N 53°27' W 003°24'0 0.0
2017-Aug-21 21:56N 53°27' W 003°24'0 0.0
2017-Aug-21 21:29N 53°27' W 003°24'0 0.0
2017-Aug-21 20:50N 53°27' W 003°24'0 0.0
2017-Aug-21 20:26N 53°27' W 003°24'0 0.0
2017-Aug-21 19:56N 53°27' W 003°24'0 0.0
2017-Aug-21 19:29N 53°27' W 003°24'0 0.0
2017-Aug-21 18:59N 53°27' W 003°24'0 0.0
2017-Aug-21 18:14N 53°27' W 003°24'0 0.0
2017-Aug-21 17:56N 53°27' W 003°24'0 0.1
2017-Aug-21 17:20N 53°27' W 003°24'0 0.0
2017-Aug-21 16:59N 53°27' W 003°24'0 0.0
2017-Aug-21 16:26N 53°27' W 003°24'0 0.0
2017-Aug-21 15:59N 53°27' W 003°24'0 0.0
2017-Aug-21 15:29N 53°27' W 003°24'0 0.0
2017-Aug-21 14:56N 53°27' W 003°24'0 0.0
2017-Aug-21 14:26N 53°27' W 003°24'0 0.0
2017-Aug-21 13:59N 53°27' W 003°24'0 0.0
2017-Aug-21 13:29N 53°27' W 003°24'0 0.0
2017-Aug-21 12:59N 53°27' W 003°24'0 0.0
2017-Aug-21 12:29N 53°27' W 003°24'0 0.0
2017-Aug-21 11:56N 53°27' W 003°24'0 0.0
2017-Aug-21 11:29N 53°27' W 003°24'0 0.0
2017-Aug-21 10:59N 53°27' W 003°24'0 0.0
2017-Aug-21 10:29N 53°27' W 003°24'0 0.1
2017-Aug-21 09:59N 53°27' W 003°24'0 0.1
2017-Aug-21 09:23N 53°27' W 003°24'0 0.0
2017-Aug-21 08:56N 53°27' W 003°24'0 0.0
2017-Aug-21 08:29N 53°27' W 003°24'0 0.0
2017-Aug-21 07:59N 53°27' W 003°24'0 0.1
2017-Aug-21 07:29N 53°27' W 003°24'1 2.8
2017-Aug-21 07:00N 53°28' W 003°26'4 8.9
2017-Aug-21 06:30N 53°31' W 003°32'611.4
2017-Aug-21 06:00N 53°31' W 003°41'510.7
2017-Aug-21 05:30N 53°33' W 003°50'5611.3
2017-Aug-21 00:32N 54°10' W 005°01'112.3
2017-Aug-21 00:28N 54°11' W 005°01'612.4
2017-Aug-21 00:00N 54°17' W 005°03'612.3
2017-Aug-20 23:30N 54°22' W 005°06'612.1
2017-Aug-20 23:00N 54°28' W 005°09'611.9
2017-Aug-20 22:30N 54°34' W 005°13'612.8
2017-Aug-20 22:00N 54°39' W 005°18'713.8
2017-Aug-20 21:30N 54°45' W 005°25'714.3
2017-Aug-20 21:00N 54°51' W 005°31'1214.4
2017-Aug-20 20:08N 55°01' W 005°43'214.4
2017-Aug-20 20:00N 55°03' W 005°46'1015.4
2017-Aug-20 19:22N 55°11' W 005°55'616.5
2017-Aug-20 19:00N 55°16' W 006°01'815.3
2017-Aug-20 18:30N 55°21' W 006°11'714.6
2017-Aug-20 18:00N 55°23' W 006°23'713.8
2017-Aug-20 17:31N 55°25' W 006°35'612.5
2017-Aug-20 17:00N 55°30' W 006°41'713.1
2017-Aug-20 16:30N 55°36' W 006°46'612.2
2017-Aug-20 16:00N 55°41' W 006°51'611.3
2017-Aug-20 15:30N 55°47' W 006°55'611.5
2017-Aug-20 14:56N 55°53' W 006°59'19310.9
2017-Aug-19 21:09N 58°43' W 004°10'211.2
2017-Aug-19 21:00N 58°43' W 004°07'611.1
2017-Aug-19 20:30N 58°43' W 003°56'510.7
2017-Aug-19 20:00N 58°43' W 003°46'5 9.9
2017-Aug-19 19:30N 58°43' W 003°36'5 9.3
2017-Aug-19 19:01N 58°43' W 003°27'4 8.9
2017-Aug-19 18:30N 58°43' W 003°19'4 8.2
2017-Aug-19 18:00N 58°43' W 003°11'3 6.5
2017-Aug-19 17:30N 58°43' W 003°05'4 7.1
2017-Aug-19 17:00N 58°43' W 002°58'5 9.6
2017-Aug-19 16:31N 58°43' W 002°49'23510.8
2017-Aug-18 18:43N 59°03' E 004°45'211.5
2017-Aug-18 18:31N 59°03' E 004°49'611.7
2017-Aug-18 18:00N 59°03' E 005°01'611.5
2017-Aug-18 17:30N 59°04' E 005°12'511.1
2017-Aug-18 17:01N 59°06' E 005°22'510.2
2017-Aug-18 16:30N 59°09' E 005°29'510.4
2017-Aug-18 16:01N 59°14' E 005°31'2 3.8
2017-Aug-18 15:29N 59°16' E 005°30'0 0.0
2017-Aug-18 14:56N 59°16' E 005°30'0 0.0
2017-Aug-18 14:29N 59°16' E 005°30'0 0.0
2017-Aug-18 13:29N 59°16' E 005°30'0 0.0
2017-Aug-18 12:56N 59°16' E 005°30'0 0.0
2017-Aug-18 12:29N 59°16' E 005°30'0 0.0
2017-Aug-18 11:59N 59°16' E 005°30'0 0.0
2017-Aug-18 11:29N 59°16' E 005°30'0 0.0
2017-Aug-18 10:59N 59°16' E 005°30'0 0.0
2017-Aug-18 10:29N 59°16' E 005°30'0 0.0
2017-Aug-18 09:56N 59°16' E 005°30'0 0.0
2017-Aug-18 09:29N 59°16' E 005°30'0 0.0
2017-Aug-18 08:59N 59°16' E 005°30'0 0.0
2017-Aug-18 08:29N 59°16' E 005°30'0 0.0
2017-Aug-18 07:59N 59°16' E 005°30'0 0.0
2017-Aug-18 07:26N 59°16' E 005°30'0 0.0
2017-Aug-18 06:59N 59°16' E 005°30'0 0.0
2017-Aug-18 06:26N 59°16' E 005°30'0 0.0
2017-Aug-18 05:53N 59°16' E 005°30'0 0.0
2017-Aug-18 05:26N 59°16' E 005°30'0 0.0
2017-Aug-18 04:59N 59°16' E 005°30'0 0.0
2017-Aug-18 04:29N 59°16' E 005°30'0 0.0
2017-Aug-18 03:59N 59°16' E 005°30'0 0.0
2017-Aug-18 03:29N 59°16' E 005°30'0 0.0
2017-Aug-18 02:59N 59°16' E 005°30'0 0.0
2017-Aug-18 02:29N 59°16' E 005°30'0 0.0
2017-Aug-18 01:59N 59°16' E 005°30'0 0.0
2017-Aug-18 01:29N 59°16' E 005°30'0 0.0
2017-Aug-18 00:59N 59°16' E 005°30'0 0.0
2017-Aug-18 00:23N 59°16' E 005°30'0 0.0
2017-Aug-17 23:59N 59°16' E 005°30'0 0.0
2017-Aug-17 23:29N 59°16' E 005°30'0 0.0
2017-Aug-17 22:59N 59°16' E 005°30'0 0.0
2017-Aug-17 22:29N 59°16' E 005°30'0 0.0
2017-Aug-17 21:59N 59°16' E 005°30'0 0.0
2017-Aug-17 21:29N 59°16' E 005°30'0 0.0
2017-Aug-17 21:00N 59°16' E 005°30'2 3.3
2017-Aug-17 20:30N 59°15' E 005°31'1 1.5
2017-Aug-17 19:58N 59°14' E 005°31'0 0.0
2017-Aug-17 19:11N 59°14' E 005°30'0 0.1
2017-Aug-17 18:58N 59°14' E 005°31'0 0.1
2017-Aug-17 18:28N 59°14' E 005°30'0 0.0
2017-Aug-17 17:58N 59°14' E 005°30'0 0.1
2017-Aug-17 17:28N 59°14' E 005°31'0 0.0
2017-Aug-17 16:58N 59°14' E 005°31'0 0.0
2017-Aug-17 16:25N 59°14' E 005°31'0 0.0
2017-Aug-17 15:58N 59°14' E 005°31'0 0.0
2017-Aug-17 15:28N 59°14' E 005°31'0 0.0
2017-Aug-17 14:58N 59°14' E 005°31'0 0.0
2017-Aug-17 14:28N 59°14' E 005°31'0 0.0
2017-Aug-17 13:58N 59°14' E 005°31'0 0.0
2017-Aug-17 13:28N 59°14' E 005°31'0 0.0
2017-Aug-17 12:58N 59°14' E 005°31'0 0.0
2017-Aug-17 12:28N 59°14' E 005°30'0 0.0
2017-Aug-17 11:58N 59°14' E 005°31'0 0.0
2017-Aug-17 11:28N 59°14' E 005°30'0 0.0
2017-Aug-17 10:58N 59°14' E 005°31'0 0.0
2017-Aug-17 10:28N 59°14' E 005°31'0 0.0
2017-Aug-17 09:58N 59°14' E 005°31'0 0.0
2017-Aug-17 09:28N 59°14' E 005°31'0 0.0
2017-Aug-17 08:58N 59°14' E 005°31'0 0.0
2017-Aug-17 08:28N 59°14' E 005°31'0 0.0
2017-Aug-17 07:58N 59°14' E 005°31'0 0.0
2017-Aug-17 07:28N 59°14' E 005°31'0 0.0
2017-Aug-17 06:58N 59°14' E 005°31'0 0.0
2017-Aug-17 06:28N 59°14' E 005°30'0 0.0
2017-Aug-17 05:58N 59°14' E 005°30'0 0.0
2017-Aug-17 05:28N 59°14' E 005°30'0 0.0
2017-Aug-17 04:58N 59°14' E 005°31'0 0.0
2017-Aug-17 04:28N 59°14' E 005°31'0 0.0
2017-Aug-17 03:58N 59°14' E 005°31'0 0.0
2017-Aug-17 03:28N 59°14' E 005°30'0 0.0
2017-Aug-17 02:58N 59°14' E 005°31'0 0.0
2017-Aug-17 02:28N 59°14' E 005°31'0 0.0
2017-Aug-17 01:58N 59°14' E 005°31'0 0.0
2017-Aug-17 01:28N 59°14' E 005°31'0 0.0
2017-Aug-17 00:58N 59°14' E 005°31'0 0.0
2017-Aug-17 00:28N 59°14' E 005°31'0 0.0
2017-Aug-16 23:58N 59°14' E 005°31'0 0.0
2017-Aug-16 23:28N 59°14' E 005°31'0 0.0
2017-Aug-16 22:58N 59°14' E 005°31'0 0.0
2017-Aug-16 22:28N 59°14' E 005°31'0 0.0
2017-Aug-16 21:58N 59°14' E 005°31'0 0.0
2017-Aug-16 21:28N 59°14' E 005°31'0 0.0
2017-Aug-16 20:58N 59°14' E 005°31'0 0.0
2017-Aug-16 20:28N 59°14' E 005°31'0 0.0
2017-Aug-16 19:58N 59°14' E 005°31'0 0.0
2017-Aug-16 19:28N 59°14' E 005°31'0 0.0
2017-Aug-16 18:58N 59°14' E 005°31'0 0.0
2017-Aug-16 18:28N 59°14' E 005°31'0 0.0
2017-Aug-16 17:58N 59°14' E 005°31'0 0.0
2017-Aug-16 17:25N 59°14' E 005°31'0 0.0
2017-Aug-16 16:58N 59°14' E 005°31'0 0.0
2017-Aug-16 16:30N 59°14' E 005°31'0 0.0
2017-Aug-16 16:00N 59°14' E 005°31'0 0.0
2017-Aug-16 15:30N 59°14' E 005°31'0 0.1
2017-Aug-16 15:00N 59°14' E 005°31'2 4.8
2017-Aug-16 14:30N 59°11' E 005°32'511.1
2017-Aug-16 14:00N 59°07' E 005°27'510.1
2017-Aug-16 13:30N 59°04' E 005°19'510.5
2017-Aug-16 13:00N 58°59' E 005°14'612.8
2017-Aug-16 12:30N 58°53' E 005°12'714.6
2017-Aug-16 12:00N 58°46' E 005°10'714.3
2017-Aug-16 11:30N 58°39' E 005°08'713.9
2017-Aug-16 11:00N 58°32' E 005°05'29612.9
2017-Aug-15 11:58N 53°36' E 004°49'814.1
2017-Aug-15 11:26N 53°29' E 004°45'614.3
2017-Aug-15 10:59N 53°23' E 004°41'1015.1
2017-Aug-15 10:21N 53°14' E 004°34'615.6
2017-Aug-15 09:58N 53°09' E 004°30'715.2
2017-Aug-15 09:30N 53°03' E 004°24'714.8
2017-Aug-15 09:00N 52°56' E 004°18'714.8
2017-Aug-15 08:31N 52°50' E 004°12'714.4
2017-Aug-15 08:00N 52°44' E 004°06'714.6
2017-Aug-15 07:31N 52°39' E 003°57'714.8
2017-Aug-15 07:01N 52°34' E 003°49'714.8
2017-Aug-15 06:30N 52°28' E 003°40'714.7
2017-Aug-15 06:00N 52°23' E 003°31'714.5
2017-Aug-15 05:30N 52°18' E 003°23'714.2
2017-Aug-15 05:01N 52°13' E 003°15'713.8
2017-Aug-15 04:30N 52°08' E 003°08'713.5
2017-Aug-15 04:00N 52°02' E 003°01'613.0
2017-Aug-15 03:31N 51°57' E 002°54'612.8
2017-Aug-15 03:00N 51°53' E 002°47'612.5
2017-Aug-15 02:30N 51°48' E 002°40'612.2
2017-Aug-15 02:00N 51°44' E 002°33'612.1
2017-Aug-15 01:31N 51°39' E 002°27'611.9
2017-Aug-15 01:00N 51°34' E 002°21'611.7
2017-Aug-15 00:31N 51°30' E 002°15'611.9
2017-Aug-15 00:00N 51°26' E 002°08'612.0
2017-Aug-14 23:30N 51°20' E 002°06'612.3
2017-Aug-14 23:00N 51°14' E 002°05'612.0
2017-Aug-14 22:31N 51°11' E 001°57'612.0
2017-Aug-14 22:01N 51°08' E 001°48'5 9.6
2017-Aug-14 21:30N 51°03' E 001°47'714.4
2017-Aug-14 21:00N 51°03' E 001°59'714.1
2017-Aug-14 20:31N 51°03' E 002°10'713.4
2017-Aug-14 20:00N 51°04' E 002°21'1 1.5
2017-Aug-14 19:30N 51°03' E 002°20'2 3.3
2017-Aug-14 19:00N 51°03' E 002°18'2 2.1
2017-Aug-14 18:16N 51°02' E 002°16'0 0.0
2017-Aug-14 17:49N 51°02' E 002°16'0 0.0
2017-Aug-14 17:22N 51°02' E 002°16'0 0.0
2017-Aug-14 16:55N 51°02' E 002°16'0 0.0
2017-Aug-14 16:25N 51°02' E 002°16'0 0.0
2017-Aug-14 15:52N 51°02' E 002°16'0 0.0
2017-Aug-14 15:25N 51°02' E 002°16'0 0.0
2017-Aug-14 14:58N 51°02' E 002°16'0 0.0
2017-Aug-14 14:28N 51°02' E 002°16'0 0.0
2017-Aug-14 13:58N 51°02' E 002°16'0 0.0
2017-Aug-14 13:25N 51°02' E 002°16'0 0.0
2017-Aug-14 12:49N 51°02' E 002°16'0 0.0
2017-Aug-14 12:13N 51°02' E 002°16'0 0.0
2017-Aug-14 11:55N 51°02' E 002°16'0 0.0
2017-Aug-14 11:22N 51°02' E 002°16'0 0.0
2017-Aug-14 10:55N 51°02' E 002°16'0 0.0
2017-Aug-14 10:25N 51°02' E 002°16'0 0.0
2017-Aug-14 09:55N 51°02' E 002°16'0 0.0
2017-Aug-14 09:01N 51°02' E 002°16'0 0.0
2017-Aug-14 08:49N 51°02' E 002°16'0 0.0
2017-Aug-14 08:07N 51°02' E 002°16'0 0.0
2017-Aug-14 07:52N 51°02' E 002°16'0 0.0
2017-Aug-14 07:25N 51°02' E 002°16'0 0.0
2017-Aug-14 06:52N 51°02' E 002°16'0 0.0
2017-Aug-14 06:28N 51°02' E 002°16'0 0.0
2017-Aug-14 05:58N 51°02' E 002°16'0 0.0
2017-Aug-14 05:19N 51°02' E 002°16'0 0.0
2017-Aug-14 04:52N 51°02' E 002°16'0 0.0
2017-Aug-14 04:28N 51°02' E 002°16'0 0.0
2017-Aug-14 03:58N 51°02' E 002°16'0 0.0
2017-Aug-14 03:25N 51°02' E 002°16'0 0.0
2017-Aug-14 02:49N 51°02' E 002°16'0 0.0
2017-Aug-14 02:28N 51°02' E 002°16'0 0.0
2017-Aug-14 01:52N 51°02' E 002°16'0 0.0
2017-Aug-14 01:28N 51°02' E 002°16'0 0.0
2017-Aug-14 00:52N 51°02' E 002°16'0 0.0
2017-Aug-14 00:25N 51°02' E 002°16'0 0.0
2017-Aug-13 23:58N 51°02' E 002°16'0 0.0
2017-Aug-13 22:37N 51°02' E 002°16'0 0.0
2017-Aug-13 22:28N 51°02' E 002°16'0 0.0
2017-Aug-13 21:58N 51°02' E 002°16'0 0.0
2017-Aug-13 21:25N 51°02' E 002°16'0 0.0
2017-Aug-13 20:34N 51°02' E 002°16'0 0.0
2017-Aug-13 20:13N 51°02' E 002°16'0 0.0
2017-Aug-13 19:52N 51°02' E 002°16'0 0.0
2017-Aug-13 19:28N 51°02' E 002°16'0 0.0
2017-Aug-13 18:52N 51°02' E 002°16'0 0.0
2017-Aug-13 18:28N 51°02' E 002°16'0 0.0
2017-Aug-13 17:58N 51°02' E 002°16'0 0.0
2017-Aug-13 17:22N 51°02' E 002°16'0 0.0
2017-Aug-13 16:31N 51°02' E 002°16'0 0.0
2017-Aug-13 16:28N 51°02' E 002°16'0 0.0
2017-Aug-13 15:52N 51°02' E 002°16'0 0.0
2017-Aug-13 15:16N 51°02' E 002°16'0 0.0
2017-Aug-13 14:52N 51°02' E 002°16'0 0.0
2017-Aug-13 14:31N 51°02' E 002°16'2 3.1
2017-Aug-13 13:58N 51°03' E 002°18'2 3.4
2017-Aug-13 13:30N 51°03' E 002°21'1 2.0
2017-Aug-13 13:01N 51°04' E 002°21'2 4.4
2017-Aug-13 12:31N 51°04' E 002°18'4 8.5
2017-Aug-13 12:01N 51°03' E 002°11'510.7
2017-Aug-13 11:30N 51°03' E 002°03'510.4
2017-Aug-13 11:00N 51°02' E 001°54'5 9.2
2017-Aug-13 10:30N 51°03' E 001°47'4 7.5
2017-Aug-13 10:00N 51°05' E 001°43'2 4.4
2017-Aug-13 09:30N 51°07' E 001°40'2 4.9
2017-Aug-13 09:00N 51°09' E 001°41'3 5.7
2017-Aug-13 08:30N 51°12' E 001°44'3 5.3
2017-Aug-13 08:00N 51°14' E 001°46'3 5.2
2017-Aug-13 07:31N 51°16' E 001°48'3 5.3
2017-Aug-13 07:00N 51°18' E 001°50'5 9.6
2017-Aug-13 06:30N 51°23' E 001°53'611.8
2017-Aug-13 06:00N 51°28' E 001°58'611.7
2017-Aug-13 05:29N 51°32' E 002°05'611.7
2017-Aug-13 04:59N 51°37' E 002°11'811.8
2017-Aug-13 04:18N 51°43' E 002°20'1511.5
2017-Aug-13 03:02N 51°56' E 002°28'413.4
2017-Aug-13 02:45N 52°00' E 002°27'513.8
2017-Aug-13 02:21N 52°05' E 002°26'4714.8
2017-Aug-12 23:11N 52°50' E 002°04'614.7
2017-Aug-12 22:48N 52°54' E 001°57'415.3
2017-Aug-12 22:30N 52°57' E 001°51'815.5
2017-Aug-12 22:00N 53°00' E 001°40'815.1
2017-Aug-12 21:30N 53°05' E 001°30'714.9
2017-Aug-12 21:00N 53°10' E 001°21'713.9
2017-Aug-12 20:30N 53°15' E 001°14'5814.4
2017-Aug-12 16:29N 54°02' E 000°16'713.7
2017-Aug-12 16:00N 54°07' E 000°08'713.3
2017-Aug-12 15:30N 54°12' E 000°01'612.9
2017-Aug-12 15:00N 54°17' W 000°07'612.6
2017-Aug-12 14:30N 54°21' W 000°14'612.4
2017-Aug-12 14:00N 54°26' W 000°21'611.9
2017-Aug-12 13:30N 54°30' W 000°29'2011.9
2017-Aug-12 11:48N 54°40' W 000°59'  

Dump ship's entire track history